sensor_id;sensor_type;location;lat;lon;timestamp;temperature;humidity
41437;DHT22;27178;49.460;10.850;2022-09-11T00:01:41;18.10;99.90
41437;DHT22;27178;49.460;10.850;2022-09-11T00:04:10;18.20;99.90
41437;DHT22;27178;49.460;10.850;2022-09-11T00:06:38;18.20;99.90
41437;DHT22;27178;49.460;10.850;2022-09-11T00:09:07;18.20;99.90
41437;DHT22;27178;49.460;10.850;2022-09-11T00:11:38;18.10;99.90
41437;DHT22;27178;49.460;10.850;2022-09-11T00:14:09;18.20;99.90
41437;DHT22;27178;49.460;10.850;2022-09-11T00:16:41;18.10;99.90
41437;DHT22;27178;49.460;10.850;2022-09-11T00:19:13;18.20;99.90
41437;DHT22;27178;49.460;10.850;2022-09-11T00:21:41;18.20;99.90
41437;DHT22;27178;49.460;10.850;2022-09-11T00:24:09;18.10;99.90
41437;DHT22;27178;49.460;10.850;2022-09-11T00:26:38;18.10;99.90
41437;DHT22;27178;49.460;10.850;2022-09-11T00:29:09;18.10;99.90
41437;DHT22;27178;49.460;10.850;2022-09-11T00:31:38;18.10;99.90
41437;DHT22;27178;49.460;10.850;2022-09-11T00:34:07;18.10;99.90
41437;DHT22;27178;49.460;10.850;2022-09-11T00:36:37;18.10;99.90
41437;DHT22;27178;49.460;10.850;2022-09-11T00:39:09;18.10;99.90
41437;DHT22;27178;49.460;10.850;2022-09-11T00:41:39;18.10;99.90
41437;DHT22;27178;49.460;10.850;2022-09-11T00:47:15;18.10;99.90
41437;DHT22;27178;49.460;10.850;2022-09-11T00:49:47;18.10;99.90
41437;DHT22;27178;49.460;10.850;2022-09-11T00:52:21;18.10;99.90
41437;DHT22;27178;49.460;10.850;2022-09-11T00:54:53;18.10;99.90
41437;DHT22;27178;49.460;10.850;2022-09-11T00:57:27;18.10;99.90
41437;DHT22;27178;49.460;10.850;2022-09-11T00:59:58;18.20;99.90
41437;DHT22;27178;49.460;10.850;2022-09-11T01:02:30;18.10;99.90
41437;DHT22;27178;49.460;10.850;2022-09-11T01:05:01;18.10;99.90
41437;DHT22;27178;49.460;10.850;2022-09-11T01:07:31;18.10;99.90
41437;DHT22;27178;49.460;10.850;2022-09-11T01:10:01;18.10;99.90
41437;DHT22;27178;49.460;10.850;2022-09-11T01:12:38;18.10;99.90
41437;DHT22;27178;49.460;10.850;2022-09-11T01:15:14;18.10;99.90
41437;DHT22;27178;49.460;10.850;2022-09-11T01:17:53;18.10;99.90
41437;DHT22;27178;49.460;10.850;2022-09-11T01:20:32;18.00;99.90
41437;DHT22;27178;49.460;10.850;2022-09-11T01:23:28;18.00;99.90
41437;DHT22;27178;49.460;10.850;2022-09-11T01:26:15;18.00;99.90
41437;DHT22;27178;49.460;10.850;2022-09-11T01:28:53;18.00;99.90
41437;DHT22;27178;49.460;10.850;2022-09-11T01:31:26;17.90;99.90
41437;DHT22;27178;49.460;10.850;2022-09-11T01:33:59;17.90;99.90
41437;DHT22;27178;49.460;10.850;2022-09-11T01:36:31;17.90;99.90
41437;DHT22;27178;49.460;10.850;2022-09-11T01:39:03;17.90;99.90
41437;DHT22;27178;49.460;10.850;2022-09-11T01:41:34;17.80;99.90
41437;DHT22;27178;49.460;10.850;2022-09-11T01:44:10;17.80;99.90
41437;DHT22;27178;49.460;10.850;2022-09-11T01:46:45;17.80;99.90
41437;DHT22;27178;49.460;10.850;2022-09-11T01:49:17;17.80;99.90
41437;DHT22;27178;49.460;10.850;2022-09-11T01:51:50;17.80;99.90
41437;DHT22;27178;49.460;10.850;2022-09-11T01:54:21;17.80;99.90
41437;DHT22;27178;49.460;10.850;2022-09-11T01:56:52;17.80;99.90
41437;DHT22;27178;49.460;10.850;2022-09-11T01:59:26;17.70;99.90
41437;DHT22;27178;49.460;10.850;2022-09-11T02:02:02;17.70;99.90
41437;DHT22;27178;49.460;10.850;2022-09-11T02:04:36;17.70;99.90
41437;DHT22;27178;49.460;10.850;2022-09-11T02:07:08;17.70;99.90
41437;DHT22;27178;49.460;10.850;2022-09-11T02:09:42;17.70;99.90
41437;DHT22;27178;49.460;10.850;2022-09-11T02:12:14;17.80;99.90
41437;DHT22;27178;49.460;10.850;2022-09-11T02:14:47;17.80;99.90
41437;DHT22;27178;49.460;10.850;2022-09-11T02:17:22;17.80;99.90
41437;DHT22;27178;49.460;10.850;2022-09-11T02:19:55;17.80;99.90
41437;DHT22;27178;49.460;10.850;2022-09-11T02:22:25;17.80;99.90
41437;DHT22;27178;49.460;10.850;2022-09-11T02:24:54;17.80;99.90
41437;DHT22;27178;49.460;10.850;2022-09-11T02:27:24;17.80;99.90
41437;DHT22;27178;49.460;10.850;2022-09-11T02:29:56;17.80;99.90
41437;DHT22;27178;49.460;10.850;2022-09-11T02:32:25;17.80;99.90
41437;DHT22;27178;49.460;10.850;2022-09-11T02:34:54;17.80;99.90
41437;DHT22;27178;49.460;10.850;2022-09-11T02:37:33;17.80;99.90
41437;DHT22;27178;49.460;10.850;2022-09-11T02:40:17;17.80;99.90
41437;DHT22;27178;49.460;10.850;2022-09-11T02:43:00;17.80;99.90
41437;DHT22;27178;49.460;10.850;2022-09-11T02:45:44;17.30;99.90
41437;DHT22;27178;49.460;10.850;2022-09-11T02:48:26;17.80;99.90
41437;DHT22;27178;49.460;10.850;2022-09-11T02:51:05;17.80;99.90
41437;DHT22;27178;49.460;10.850;2022-09-11T02:53:41;17.70;99.90
41437;DHT22;27178;49.460;10.850;2022-09-11T02:56:17;17.70;99.90
41437;DHT22;27178;49.460;10.850;2022-09-11T02:58:51;17.70;99.90
41437;DHT22;27178;49.460;10.850;2022-09-11T03:01:23;17.70;99.90
41437;DHT22;27178;49.460;10.850;2022-09-11T03:03:52;17.70;99.90
41437;DHT22;27178;49.460;10.850;2022-09-11T03:06:23;17.70;99.90
41437;DHT22;27178;49.460;10.850;2022-09-11T03:08:51;17.70;99.90
41437;DHT22;27178;49.460;10.850;2022-09-11T03:11:19;17.70;99.90
41437;DHT22;27178;49.460;10.850;2022-09-11T03:13:48;17.70;99.90
41437;DHT22;27178;49.460;10.850;2022-09-11T03:16:16;17.70;99.90
41437;DHT22;27178;49.460;10.850;2022-09-11T03:18:46;17.70;99.90
41437;DHT22;27178;49.460;10.850;2022-09-11T03:21:14;17.70;99.90
41437;DHT22;27178;49.460;10.850;2022-09-11T03:23:43;17.70;99.90
41437;DHT22;27178;49.460;10.850;2022-09-11T03:26:11;17.70;99.90
41437;DHT22;27178;49.460;10.850;2022-09-11T03:28:40;17.70;99.90
41437;DHT22;27178;49.460;10.850;2022-09-11T03:31:09;17.70;99.90
41437;DHT22;27178;49.460;10.850;2022-09-11T03:33:40;17.70;99.90
41437;DHT22;27178;49.460;10.850;2022-09-11T03:36:09;17.80;99.90
41437;DHT22;27178;49.460;10.850;2022-09-11T03:38:38;17.80;99.90
41437;DHT22;27178;49.460;10.850;2022-09-11T03:41:06;17.70;99.90
41437;DHT22;27178;49.460;10.850;2022-09-11T03:43:35;17.80;99.90
41437;DHT22;27178;49.460;10.850;2022-09-11T03:46:04;17.80;99.90
41437;DHT22;27178;49.460;10.850;2022-09-11T03:48:32;17.80;99.90
41437;DHT22;27178;49.460;10.850;2022-09-11T03:51:01;17.80;99.90
41437;DHT22;27178;49.460;10.850;2022-09-11T03:53:32;17.80;99.90
41437;DHT22;27178;49.460;10.850;2022-09-11T03:56:02;17.80;99.90
41437;DHT22;27178;49.460;10.850;2022-09-11T03:58:30;17.80;99.90
41437;DHT22;27178;49.460;10.850;2022-09-11T04:00:59;17.80;99.90
41437;DHT22;27178;49.460;10.850;2022-09-11T04:03:27;17.80;99.90
41437;DHT22;27178;49.460;10.850;2022-09-11T04:05:59;17.80;99.90
41437;DHT22;27178;49.460;10.850;2022-09-11T04:08:28;17.80;99.90
41437;DHT22;27178;49.460;10.850;2022-09-11T04:11:02;17.80;99.90
41437;DHT22;27178;49.460;10.850;2022-09-11T04:13:33;17.80;99.90
41437;DHT22;27178;49.460;10.850;2022-09-11T04:16:04;17.80;99.90
41437;DHT22;27178;49.460;10.850;2022-09-11T04:18:34;17.80;99.90
41437;DHT22;27178;49.460;10.850;2022-09-11T04:21:03;17.80;99.90
41437;DHT22;27178;49.460;10.850;2022-09-11T04:23:32;17.80;99.90
41437;DHT22;27178;49.460;10.850;2022-09-11T04:26:02;17.80;99.90
41437;DHT22;27178;49.460;10.850;2022-09-11T04:28:30;17.80;99.90
41437;DHT22;27178;49.460;10.850;2022-09-11T04:31:01;17.80;99.90
41437;DHT22;27178;49.460;10.850;2022-09-11T04:33:29;17.80;99.90
41437;DHT22;27178;49.460;10.850;2022-09-11T04:36:03;17.80;99.90
41437;DHT22;27178;49.460;10.850;2022-09-11T04:38:32;17.80;99.90
41437;DHT22;27178;49.460;10.850;2022-09-11T04:41:03;17.80;99.90
41437;DHT22;27178;49.460;10.850;2022-09-11T04:43:32;17.80;99.90
41437;DHT22;27178;49.460;10.850;2022-09-11T04:46:01;17.80;99.90
41437;DHT22;27178;49.460;10.850;2022-09-11T04:48:29;17.80;99.90
41437;DHT22;27178;49.460;10.850;2022-09-11T04:51:05;17.80;99.90
41437;DHT22;27178;49.460;10.850;2022-09-11T04:53:34;17.80;99.90
41437;DHT22;27178;49.460;10.850;2022-09-11T04:56:06;17.80;99.90
41437;DHT22;27178;49.460;10.850;2022-09-11T04:58:35;17.80;99.90
41437;DHT22;27178;49.460;10.850;2022-09-11T05:01:06;17.80;99.90
41437;DHT22;27178;49.460;10.850;2022-09-11T05:03:35;17.80;99.90
41437;DHT22;27178;49.460;10.850;2022-09-11T05:06:04;17.80;99.90
41437;DHT22;27178;49.460;10.850;2022-09-11T05:08:33;17.80;99.90
41437;DHT22;27178;49.460;10.850;2022-09-11T05:11:03;17.80;99.90
41437;DHT22;27178;49.460;10.850;2022-09-11T05:13:34;17.80;99.90
41437;DHT22;27178;49.460;10.850;2022-09-11T05:16:12;17.80;99.90
41437;DHT22;27178;49.460;10.850;2022-09-11T05:18:42;17.80;99.90
41437;DHT22;27178;49.460;10.850;2022-09-11T05:21:14;17.80;99.90
41437;DHT22;27178;49.460;10.850;2022-09-11T05:23:47;17.80;99.90
41437;DHT22;27178;49.460;10.850;2022-09-11T05:26:16;17.80;99.90
41437;DHT22;27178;49.460;10.850;2022-09-11T05:28:47;17.80;99.90
41437;DHT22;27178;49.460;10.850;2022-09-11T05:31:16;17.80;99.90
41437;DHT22;27178;49.460;10.850;2022-09-11T05:33:45;17.80;99.90
41437;DHT22;27178;49.460;10.850;2022-09-11T05:36:14;17.80;99.90
41437;DHT22;27178;49.460;10.850;2022-09-11T05:38:44;17.80;99.90
41437;DHT22;27178;49.460;10.850;2022-09-11T05:41:12;17.80;99.90
41437;DHT22;27178;49.460;10.850;2022-09-11T05:43:41;17.80;99.90
41437;DHT22;27178;49.460;10.850;2022-09-11T05:46:12;17.80;99.90
41437;DHT22;27178;49.460;10.850;2022-09-11T05:48:41;17.80;99.90
41437;DHT22;27178;49.460;10.850;2022-09-11T05:51:11;17.80;99.90
41437;DHT22;27178;49.460;10.850;2022-09-11T05:53:40;17.80;99.90
41437;DHT22;27178;49.460;10.850;2022-09-11T05:56:11;17.80;99.90
41437;DHT22;27178;49.460;10.850;2022-09-11T05:58:40;17.80;99.90
41437;DHT22;27178;49.460;10.850;2022-09-11T06:01:11;17.80;99.90
41437;DHT22;27178;49.460;10.850;2022-09-11T06:03:40;17.90;99.90
41437;DHT22;27178;49.460;10.850;2022-09-11T06:06:11;17.90;99.90
41437;DHT22;27178;49.460;10.850;2022-09-11T06:08:40;17.90;99.90
41437;DHT22;27178;49.460;10.850;2022-09-11T06:11:11;17.90;99.90
41437;DHT22;27178;49.460;10.850;2022-09-11T06:13:41;17.90;99.90
41437;DHT22;27178;49.460;10.850;2022-09-11T06:16:13;17.90;99.90
41437;DHT22;27178;49.460;10.850;2022-09-11T06:18:44;17.90;99.90
41437;DHT22;27178;49.460;10.850;2022-09-11T06:21:17;17.90;99.90
41437;DHT22;27178;49.460;10.850;2022-09-11T06:23:47;17.90;99.90
41437;DHT22;27178;49.460;10.850;2022-09-11T06:26:17;17.90;99.90
41437;DHT22;27178;49.460;10.850;2022-09-11T06:28:45;17.90;99.90
41437;DHT22;27178;49.460;10.850;2022-09-11T06:31:16;17.90;99.90
41437;DHT22;27178;49.460;10.850;2022-09-11T06:33:46;17.90;99.90
41437;DHT22;27178;49.460;10.850;2022-09-11T06:36:16;18.00;99.90
41437;DHT22;27178;49.460;10.850;2022-09-11T06:38:45;18.00;99.90
41437;DHT22;27178;49.460;10.850;2022-09-11T06:41:15;18.00;99.90
41437;DHT22;27178;49.460;10.850;2022-09-11T06:43:43;18.00;99.90
41437;DHT22;27178;49.460;10.850;2022-09-11T06:46:13;18.00;99.90
41437;DHT22;27178;49.460;10.850;2022-09-11T06:48:45;18.00;99.90
41437;DHT22;27178;49.460;10.850;2022-09-11T06:51:15;18.00;99.90
41437;DHT22;27178;49.460;10.850;2022-09-11T06:53:45;18.00;99.90
41437;DHT22;27178;49.460;10.850;2022-09-11T06:56:14;18.10;99.90
41437;DHT22;27178;49.460;10.850;2022-09-11T06:58:43;18.10;99.90
41437;DHT22;27178;49.460;10.850;2022-09-11T07:01:13;18.10;99.90
41437;DHT22;27178;49.460;10.850;2022-09-11T07:03:45;18.10;99.90
41437;DHT22;27178;49.460;10.850;2022-09-11T07:06:15;18.10;99.90
41437;DHT22;27178;49.460;10.850;2022-09-11T07:08:47;18.20;99.90
41437;DHT22;27178;49.460;10.850;2022-09-11T07:11:17;18.20;99.90
41437;DHT22;27178;49.460;10.850;2022-09-11T07:13:45;18.20;99.90
41437;DHT22;27178;49.460;10.850;2022-09-11T07:16:14;18.20;99.90
41437;DHT22;27178;49.460;10.850;2022-09-11T07:18:45;18.20;99.90
41437;DHT22;27178;49.460;10.850;2022-09-11T07:21:14;18.30;99.90
41437;DHT22;27178;49.460;10.850;2022-09-11T07:23:46;18.30;99.90
41437;DHT22;27178;49.460;10.850;2022-09-11T07:26:15;18.30;99.90
41437;DHT22;27178;49.460;10.850;2022-09-11T07:28:43;18.30;99.90
41437;DHT22;27178;49.460;10.850;2022-09-11T07:31:16;18.30;99.90
41437;DHT22;27178;49.460;10.850;2022-09-11T07:33:49;18.40;99.90
41437;DHT22;27178;49.460;10.850;2022-09-11T07:36:19;18.40;99.90
41437;DHT22;27178;49.460;10.850;2022-09-11T07:38:48;18.40;99.90
41437;DHT22;27178;49.460;10.850;2022-09-11T07:41:18;18.40;99.90
41437;DHT22;27178;49.460;10.850;2022-09-11T07:43:51;18.50;99.90
41437;DHT22;27178;49.460;10.850;2022-09-11T07:46:20;18.50;99.90
41437;DHT22;27178;49.460;10.850;2022-09-11T07:48:50;18.50;99.90
41437;DHT22;27178;49.460;10.850;2022-09-11T07:51:18;18.50;99.90
41437;DHT22;27178;49.460;10.850;2022-09-11T07:53:50;18.50;99.90
41437;DHT22;27178;49.460;10.850;2022-09-11T07:56:21;18.60;99.90
41437;DHT22;27178;49.460;10.850;2022-09-11T07:58:51;18.60;99.90
41437;DHT22;27178;49.460;10.850;2022-09-11T08:01:21;18.60;99.90
41437;DHT22;27178;49.460;10.850;2022-09-11T08:03:54;18.60;99.90
41437;DHT22;27178;49.460;10.850;2022-09-11T08:06:25;18.60;99.90
41437;DHT22;27178;49.460;10.850;2022-09-11T08:08:54;18.70;99.90
41437;DHT22;27178;49.460;10.850;2022-09-11T08:11:24;18.70;99.90
41437;DHT22;27178;49.460;10.850;2022-09-11T08:13:54;18.70;99.90
41437;DHT22;27178;49.460;10.850;2022-09-11T08:16:25;18.70;99.90
41437;DHT22;27178;49.460;10.850;2022-09-11T08:18:55;18.70;99.90
41437;DHT22;27178;49.460;10.850;2022-09-11T08:21:24;18.80;99.90
41437;DHT22;27178;49.460;10.850;2022-09-11T08:23:53;18.80;99.90
41437;DHT22;27178;49.460;10.850;2022-09-11T08:26:23;18.80;99.90
41437;DHT22;27178;49.460;10.850;2022-09-11T08:28:53;18.90;99.90
41437;DHT22;27178;49.460;10.850;2022-09-11T08:31:23;18.90;99.90
41437;DHT22;27178;49.460;10.850;2022-09-11T08:33:55;18.90;99.90
41437;DHT22;27178;49.460;10.850;2022-09-11T08:36:23;18.90;99.90
41437;DHT22;27178;49.460;10.850;2022-09-11T08:38:52;19.00;99.90
41437;DHT22;27178;49.460;10.850;2022-09-11T08:41:31;19.00;99.90
41437;DHT22;27178;49.460;10.850;2022-09-11T08:44:05;19.00;99.90
41437;DHT22;27178;49.460;10.850;2022-09-11T08:46:44;19.00;99.90
41437;DHT22;27178;49.460;10.850;2022-09-11T08:49:20;19.00;99.90
41437;DHT22;27178;49.460;10.850;2022-09-11T08:51:50;19.10;99.90
41437;DHT22;27178;49.460;10.850;2022-09-11T08:54:25;19.10;99.90
41437;DHT22;27178;49.460;10.850;2022-09-11T08:56:59;19.10;99.90
41437;DHT22;27178;49.460;10.850;2022-09-11T08:59:39;19.10;99.90
41437;DHT22;27178;49.460;10.850;2022-09-11T09:02:20;19.10;99.90
41437;DHT22;27178;49.460;10.850;2022-09-11T09:05:14;19.10;99.90
41437;DHT22;27178;49.460;10.850;2022-09-11T09:07:55;19.20;99.90
41437;DHT22;27178;49.460;10.850;2022-09-11T09:10:41;19.20;99.90
41437;DHT22;27178;49.460;10.850;2022-09-11T09:13:27;17.10;99.90
41437;DHT22;27178;49.460;10.850;2022-09-11T09:16:05;19.20;99.90
41437;DHT22;27178;49.460;10.850;2022-09-11T09:18:39;19.30;99.90
41437;DHT22;27178;49.460;10.850;2022-09-11T09:21:13;19.30;99.90
41437;DHT22;27178;49.460;10.850;2022-09-11T09:23:47;19.30;99.90
41437;DHT22;27178;49.460;10.850;2022-09-11T09:26:18;19.40;99.90
41437;DHT22;27178;49.460;10.850;2022-09-11T09:28:48;19.40;99.90
41437;DHT22;27178;49.460;10.850;2022-09-11T09:31:19;19.50;99.90
41437;DHT22;27178;49.460;10.850;2022-09-11T09:33:51;19.50;99.90
41437;DHT22;27178;49.460;10.850;2022-09-11T09:36:28;19.50;99.90
41437;DHT22;27178;49.460;10.850;2022-09-11T09:38:57;19.60;99.90
41437;DHT22;27178;49.460;10.850;2022-09-11T09:41:45;19.60;99.90
41437;DHT22;27178;49.460;10.850;2022-09-11T09:44:31;19.60;99.90
41437;DHT22;27178;49.460;10.850;2022-09-11T09:47:08;19.60;99.90
41437;DHT22;27178;49.460;10.850;2022-09-11T09:49:38;19.70;99.90
41437;DHT22;27178;49.460;10.850;2022-09-11T09:52:15;19.70;99.90
41437;DHT22;27178;49.460;10.850;2022-09-11T09:54:51;21.00;99.90
41437;DHT22;27178;49.460;10.850;2022-09-11T09:57:23;19.70;99.90
41437;DHT22;27178;49.460;10.850;2022-09-11T09:59:54;19.80;99.90
41437;DHT22;27178;49.460;10.850;2022-09-11T10:02:42;19.80;99.90
41437;DHT22;27178;49.460;10.850;2022-09-11T10:05:25;19.80;99.90
41437;DHT22;27178;49.460;10.850;2022-09-11T10:07:56;19.90;99.90
41437;DHT22;27178;49.460;10.850;2022-09-11T10:10:27;19.90;99.90
41437;DHT22;27178;49.460;10.850;2022-09-11T10:12:58;19.90;99.90
41437;DHT22;27178;49.460;10.850;2022-09-11T10:15:44;20.00;99.90
41437;DHT22;27178;49.460;10.850;2022-09-11T10:18:25;20.00;99.90
41437;DHT22;27178;49.460;10.850;2022-09-11T10:21:23;20.00;99.90
41437;DHT22;27178;49.460;10.850;2022-09-11T10:23:58;20.00;99.90
41437;DHT22;27178;49.460;10.850;2022-09-11T10:26:30;20.00;99.90
41437;DHT22;27178;49.460;10.850;2022-09-11T10:29:05;20.10;99.90
41437;DHT22;27178;49.460;10.850;2022-09-11T10:31:34;20.10;99.90
41437;DHT22;27178;49.460;10.850;2022-09-11T10:34:06;20.20;99.90
41437;DHT22;27178;49.460;10.850;2022-09-11T10:36:50;20.20;99.90
41437;DHT22;27178;49.460;10.850;2022-09-11T10:39:23;20.30;99.90
41437;DHT22;27178;49.460;10.850;2022-09-11T10:41:53;20.40;99.90
41437;DHT22;27178;49.460;10.850;2022-09-11T10:44:23;20.40;99.90
41437;DHT22;27178;49.460;10.850;2022-09-11T10:47:02;20.50;99.90
41437;DHT22;27178;49.460;10.850;2022-09-11T10:49:32;20.50;99.90
41437;DHT22;27178;49.460;10.850;2022-09-11T10:52:13;20.50;99.90
41437;DHT22;27178;49.460;10.850;2022-09-11T10:54:53;20.50;99.90
41437;DHT22;27178;49.460;10.850;2022-09-11T10:57:27;20.60;99.90
41437;DHT22;27178;49.460;10.850;2022-09-11T11:00:03;20.60;99.90
41437;DHT22;27178;49.460;10.850;2022-09-11T11:02:34;20.60;99.90
41437;DHT22;27178;49.460;10.850;2022-09-11T11:05:09;20.60;99.90
41437;DHT22;27178;49.460;10.850;2022-09-11T11:10:43;20.60;99.90
41437;DHT22;27178;49.460;10.850;2022-09-11T11:13:28;20.70;99.90
41437;DHT22;27178;49.460;10.850;2022-09-11T11:16:05;20.70;99.90
41437;DHT22;27178;49.460;10.850;2022-09-11T11:18:49;20.70;99.90
41437;DHT22;27178;49.460;10.850;2022-09-11T11:21:29;20.70;99.90
41437;DHT22;27178;49.460;10.850;2022-09-11T11:24:14;20.70;99.90
41437;DHT22;27178;49.460;10.850;2022-09-11T11:26:58;20.70;99.90
41437;DHT22;27178;49.460;10.850;2022-09-11T11:29:49;20.70;99.90
41437;DHT22;27178;49.460;10.850;2022-09-11T11:32:35;20.80;99.90
41437;DHT22;27178;49.460;10.850;2022-09-11T11:35:19;20.80;99.90
41437;DHT22;27178;49.460;10.850;2022-09-11T11:37:49;20.80;99.90
41437;DHT22;27178;49.460;10.850;2022-09-11T11:40:24;20.90;99.90
41437;DHT22;27178;49.460;10.850;2022-09-11T11:42:58;21.00;99.90
41437;DHT22;27178;49.460;10.850;2022-09-11T11:45:30;21.10;99.90
41437;DHT22;27178;49.460;10.850;2022-09-11T11:48:06;21.20;99.90
41437;DHT22;27178;49.460;10.850;2022-09-11T11:50:40;21.30;99.90
41437;DHT22;27178;49.460;10.850;2022-09-11T11:53:11;21.30;99.90
41437;DHT22;27178;49.460;10.850;2022-09-11T11:55:52;21.30;99.90
41437;DHT22;27178;49.460;10.850;2022-09-11T11:58:32;21.40;99.90
41437;DHT22;27178;49.460;10.850;2022-09-11T12:01:09;21.40;99.90
41437;DHT22;27178;49.460;10.850;2022-09-11T12:03:43;21.40;99.90
41437;DHT22;27178;49.460;10.850;2022-09-11T12:06:14;21.40;99.90
41437;DHT22;27178;49.460;10.850;2022-09-11T12:08:44;21.50;99.90
41437;DHT22;27178;49.460;10.850;2022-09-11T12:11:14;21.50;99.90
41437;DHT22;27178;49.460;10.850;2022-09-11T12:13:46;21.50;99.90
41437;DHT22;27178;49.460;10.850;2022-09-11T12:16:18;21.50;99.90
41437;DHT22;27178;49.460;10.850;2022-09-11T12:19:12;21.60;99.90
41437;DHT22;27178;49.460;10.850;2022-09-11T12:22:11;21.60;99.90
41437;DHT22;27178;49.460;10.850;2022-09-11T12:24:51;21.60;99.90
41437;DHT22;27178;49.460;10.850;2022-09-11T12:27:49;21.60;99.90
41437;DHT22;27178;49.460;10.850;2022-09-11T12:30:23;21.60;99.90
41437;DHT22;27178;49.460;10.850;2022-09-11T12:32:53;21.60;99.90
41437;DHT22;27178;49.460;10.850;2022-09-11T12:35:25;21.60;99.90
41437;DHT22;27178;49.460;10.850;2022-09-11T12:37:58;21.60;99.90
41437;DHT22;27178;49.460;10.850;2022-09-11T12:40:35;21.50;99.90
41437;DHT22;27178;49.460;10.850;2022-09-11T12:43:26;21.50;99.90
41437;DHT22;27178;49.460;10.850;2022-09-11T12:45:56;21.50;99.60
41437;DHT22;27178;49.460;10.850;2022-09-11T12:48:33;21.50;99.90
41437;DHT22;27178;49.460;10.850;2022-09-11T12:51:06;21.50;99.90
41437;DHT22;27178;49.460;10.850;2022-09-11T12:53:46;21.60;99.90
41437;DHT22;27178;49.460;10.850;2022-09-11T12:56:18;21.60;99.90
41437;DHT22;27178;49.460;10.850;2022-09-11T12:58:52;21.70;99.90
41437;DHT22;27178;49.460;10.850;2022-09-11T13:01:25;21.70;99.90
41437;DHT22;27178;49.460;10.850;2022-09-11T13:03:59;21.80;99.90
41437;DHT22;27178;49.460;10.850;2022-09-11T13:06:37;21.80;99.90
41437;DHT22;27178;49.460;10.850;2022-09-11T13:09:17;21.90;99.90
41437;DHT22;27178;49.460;10.850;2022-09-11T13:11:47;21.90;99.90
41437;DHT22;27178;49.460;10.850;2022-09-11T13:14:47;21.80;99.90
41437;DHT22;27178;49.460;10.850;2022-09-11T13:17:28;21.80;99.40
41437;DHT22;27178;49.460;10.850;2022-09-11T13:20:19;21.80;99.50
41437;DHT22;27178;49.460;10.850;2022-09-11T13:22:48;21.80;99.40
41437;DHT22;27178;49.460;10.850;2022-09-11T13:25:24;21.80;99.90
41437;DHT22;27178;49.460;10.850;2022-09-11T13:27:55;21.80;99.90
41437;DHT22;27178;49.460;10.850;2022-09-11T13:30:24;21.90;99.90
41437;DHT22;27178;49.460;10.850;2022-09-11T13:33:02;21.90;99.90
41437;DHT22;27178;49.460;10.850;2022-09-11T13:35:32;21.90;99.90
41437;DHT22;27178;49.460;10.850;2022-09-11T13:38:04;22.00;99.90
41437;DHT22;27178;49.460;10.850;2022-09-11T13:40:42;22.10;99.90
41437;DHT22;27178;49.460;10.850;2022-09-11T13:43:15;22.30;99.90
41437;DHT22;27178;49.460;10.850;2022-09-11T13:45:45;22.40;99.90
41437;DHT22;27178;49.460;10.850;2022-09-11T13:48:21;22.50;99.90
41437;DHT22;27178;49.460;10.850;2022-09-11T13:50:50;22.50;99.10
41437;DHT22;27178;49.460;10.850;2022-09-11T13:53:20;22.60;99.90
41437;DHT22;27178;49.460;10.850;2022-09-11T13:55:49;22.60;99.90
41437;DHT22;27178;49.460;10.850;2022-09-11T13:58:22;22.60;99.70
41437;DHT22;27178;49.460;10.850;2022-09-11T14:00:51;22.60;99.00
41437;DHT22;27178;49.460;10.850;2022-09-11T14:03:25;22.60;99.40
41437;DHT22;27178;49.460;10.850;2022-09-11T14:05:55;22.60;99.10
41437;DHT22;27178;49.460;10.850;2022-09-11T14:08:28;22.60;99.20
41437;DHT22;27178;49.460;10.850;2022-09-11T14:11:00;22.60;99.20
41437;DHT22;27178;49.460;10.850;2022-09-11T14:13:40;22.50;99.20
41437;DHT22;27178;49.460;10.850;2022-09-11T14:16:20;22.50;98.50
41437;DHT22;27178;49.460;10.850;2022-09-11T14:18:52;22.50;98.20
41437;DHT22;27178;49.460;10.850;2022-09-11T14:21:29;22.50;98.80
41437;DHT22;27178;49.460;10.850;2022-09-11T14:23:58;22.50;99.20
41437;DHT22;27178;49.460;10.850;2022-09-11T14:26:39;22.60;99.90
41437;DHT22;27178;49.460;10.850;2022-09-11T14:29:21;22.80;99.90
41437;DHT22;27178;49.460;10.850;2022-09-11T14:31:51;23.10;99.90
41437;DHT22;27178;49.460;10.850;2022-09-11T14:34:25;23.30;99.90
41437;DHT22;27178;49.460;10.850;2022-09-11T14:36:56;23.50;99.90
41437;DHT22;27178;49.460;10.850;2022-09-11T14:39:35;23.80;99.90
41437;DHT22;27178;49.460;10.850;2022-09-11T14:42:06;23.90;99.20
41437;DHT22;27178;49.460;10.850;2022-09-11T14:44:35;24.10;99.90
41437;DHT22;27178;49.460;10.850;2022-09-11T14:47:06;24.30;99.90
41437;DHT22;27178;49.460;10.850;2022-09-11T14:49:36;24.60;99.90
41437;DHT22;27178;49.460;10.850;2022-09-11T14:52:04;24.80;99.90
41437;DHT22;27178;49.460;10.850;2022-09-11T14:54:33;25.10;99.90
41437;DHT22;27178;49.460;10.850;2022-09-11T14:57:01;25.40;99.90
41437;DHT22;27178;49.460;10.850;2022-09-11T14:59:30;25.70;99.90
41437;DHT22;27178;49.460;10.850;2022-09-11T15:01:58;25.90;99.90
41437;DHT22;27178;49.460;10.850;2022-09-11T15:04:27;26.10;99.20
41437;DHT22;27178;49.460;10.850;2022-09-11T15:06:57;26.30;99.00
41437;DHT22;27178;49.460;10.850;2022-09-11T15:09:25;26.50;97.90
41437;DHT22;27178;49.460;10.850;2022-09-11T15:11:54;26.60;98.30
41437;DHT22;27178;49.460;10.850;2022-09-11T15:14:22;26.80;98.00
41437;DHT22;27178;49.460;10.850;2022-09-11T15:17:13;26.90;98.30
41437;DHT22;27178;49.460;10.850;2022-09-11T15:19:43;27.10;98.20
41437;DHT22;27178;49.460;10.850;2022-09-11T15:22:17;27.30;98.20
41437;DHT22;27178;49.460;10.850;2022-09-11T15:24:45;27.40;97.10
41437;DHT22;27178;49.460;10.850;2022-09-11T15:27:15;27.50;96.40
41437;DHT22;27178;49.460;10.850;2022-09-11T15:29:44;27.60;95.30
41437;DHT22;27178;49.460;10.850;2022-09-11T15:32:13;27.60;93.90
41437;DHT22;27178;49.460;10.850;2022-09-11T15:34:42;27.50;94.10
41437;DHT22;27178;49.460;10.850;2022-09-11T15:37:11;27.40;93.50
41437;DHT22;27178;49.460;10.850;2022-09-11T15:39:43;27.20;93.80
41437;DHT22;27178;49.460;10.850;2022-09-11T15:42:11;27.00;93.10
41437;DHT22;27178;49.460;10.850;2022-09-11T15:44:39;26.80;93.50
41437;DHT22;27178;49.460;10.850;2022-09-11T15:47:07;26.60;93.10
41437;DHT22;27178;49.460;10.850;2022-09-11T15:49:39;26.40;93.80
41437;DHT22;27178;49.460;10.850;2022-09-11T15:52:08;26.20;93.10
41437;DHT22;27178;49.460;10.850;2022-09-11T15:54:37;26.00;93.30
41437;DHT22;27178;49.460;10.850;2022-09-11T15:57:06;25.80;94.20